sensor_id;sensor_type;location;lat;lon;timestamp;P1;durP1;ratioP1;P2;durP2;ratioP2
73239;SDS011;61452;40.054;4.110;2022-07-10T00:04:29;4.40;;;2.05;;
73239;SDS011;61452;40.054;4.110;2022-07-10T00:09:31;3.75;;;1.85;;
73239;SDS011;61452;40.054;4.110;2022-07-10T00:14:34;5.05;;;2.10;;
73239;SDS011;61452;40.054;4.110;2022-07-10T00:19:36;4.18;;;1.83;;
73239;SDS011;61452;40.054;4.110;2022-07-10T00:24:38;5.22;;;2.30;;
73239;SDS011;61452;40.054;4.110;2022-07-10T00:29:41;4.78;;;2.00;;
73239;SDS011;61452;40.054;4.110;2022-07-10T00:34:43;4.93;;;2.10;;
73239;SDS011;61452;40.054;4.110;2022-07-10T00:39:46;3.63;;;2.22;;
73239;SDS011;61452;40.054;4.110;2022-07-10T00:44:48;4.88;;;2.20;;
73239;SDS011;61452;40.054;4.110;2022-07-10T00:49:50;7.45;;;2.88;;
73239;SDS011;61452;40.054;4.110;2022-07-10T00:54:53;8.15;;;2.72;;
73239;SDS011;61452;40.054;4.110;2022-07-10T00:59:55;3.90;;;2.20;;
73239;SDS011;61452;40.054;4.110;2022-07-10T01:04:58;5.53;;;1.92;;
73239;SDS011;61452;40.054;4.110;2022-07-10T01:10:00;4.53;;;1.83;;
73239;SDS011;61452;40.054;4.110;2022-07-10T01:15:04;4.20;;;2.15;;
73239;SDS011;61452;40.054;4.110;2022-07-10T01:20:10;5.93;;;2.42;;
73239;SDS011;61452;40.054;4.110;2022-07-10T01:25:12;3.28;;;1.90;;
73239;SDS011;61452;40.054;4.110;2022-07-10T01:30:14;3.72;;;1.90;;
73239;SDS011;61452;40.054;4.110;2022-07-10T01:35:17;4.07;;;2.00;;
73239;SDS011;61452;40.054;4.110;2022-07-10T01:40:20;4.30;;;1.90;;
73239;SDS011;61452;40.054;4.110;2022-07-10T01:45:23;2.03;;;1.60;;
73239;SDS011;61452;40.054;4.110;2022-07-10T01:50:26;4.28;;;1.75;;
73239;SDS011;61452;40.054;4.110;2022-07-10T01:55:28;4.63;;;1.95;;
73239;SDS011;61452;40.054;4.110;2022-07-10T02:00:30;6.75;;;1.80;;
73239;SDS011;61452;40.054;4.110;2022-07-10T02:05:33;4.65;;;2.03;;
73239;SDS011;61452;40.054;4.110;2022-07-10T02:10:35;4.32;;;1.75;;
73239;SDS011;61452;40.054;4.110;2022-07-10T02:15:37;6.78;;;1.95;;
73239;SDS011;61452;40.054;4.110;2022-07-10T02:20:40;4.03;;;2.10;;
73239;SDS011;61452;40.054;4.110;2022-07-10T02:30:46;3.33;;;2.03;;
73239;SDS011;61452;40.054;4.110;2022-07-10T02:35:48;3.38;;;1.88;;
73239;SDS011;61452;40.054;4.110;2022-07-10T02:40:50;4.45;;;1.70;;
73239;SDS011;61452;40.054;4.110;2022-07-10T02:45:53;3.60;;;1.98;;
73239;SDS011;61452;40.054;4.110;2022-07-10T02:50:55;4.70;;;2.03;;
73239;SDS011;61452;40.054;4.110;2022-07-10T02:55:57;5.05;;;2.30;;
73239;SDS011;61452;40.054;4.110;2022-07-10T03:01:00;4.68;;;2.67;;
73239;SDS011;61452;40.054;4.110;2022-07-10T03:06:02;4.43;;;1.85;;
73239;SDS011;61452;40.054;4.110;2022-07-10T03:11:05;6.40;;;1.95;;
73239;SDS011;61452;40.054;4.110;2022-07-10T03:16:07;3.60;;;2.08;;
73239;SDS011;61452;40.054;4.110;2022-07-10T03:21:09;9.23;;;2.47;;
73239;SDS011;61452;40.054;4.110;2022-07-10T03:26:12;5.07;;;2.25;;
73239;SDS011;61452;40.054;4.110;2022-07-10T03:31:14;5.78;;;1.95;;
73239;SDS011;61452;40.054;4.110;2022-07-10T03:36:17;3.13;;;2.42;;
73239;SDS011;61452;40.054;4.110;2022-07-10T03:41:19;5.50;;;2.42;;
73239;SDS011;61452;40.054;4.110;2022-07-10T03:46:21;5.82;;;2.25;;
73239;SDS011;61452;40.054;4.110;2022-07-10T03:51:24;4.50;;;2.13;;
73239;SDS011;61452;40.054;4.110;2022-07-10T03:56:26;4.03;;;2.45;;
73239;SDS011;61452;40.054;4.110;2022-07-10T04:01:47;6.03;;;2.78;;
73239;SDS011;61452;40.054;4.110;2022-07-10T04:06:50;4.78;;;2.20;;
73239;SDS011;61452;40.054;4.110;2022-07-10T04:11:52;4.88;;;2.25;;
73239;SDS011;61452;40.054;4.110;2022-07-10T04:16:54;3.53;;;2.25;;
73239;SDS011;61452;40.054;4.110;2022-07-10T04:21:56;3.70;;;2.20;;
73239;SDS011;61452;40.054;4.110;2022-07-10T04:26:59;5.18;;;2.85;;
73239;SDS011;61452;40.054;4.110;2022-07-10T04:32:01;5.18;;;2.15;;
73239;SDS011;61452;40.054;4.110;2022-07-10T04:37:04;4.85;;;2.33;;
73239;SDS011;61452;40.054;4.110;2022-07-10T04:42:07;4.32;;;2.30;;
73239;SDS011;61452;40.054;4.110;2022-07-10T04:47:10;5.22;;;2.47;;
73239;SDS011;61452;40.054;4.110;2022-07-10T04:52:12;3.65;;;2.35;;
73239;SDS011;61452;40.054;4.110;2022-07-10T04:57:15;5.30;;;2.60;;
73239;SDS011;61452;40.054;4.110;2022-07-10T05:02:17;6.10;;;2.55;;
73239;SDS011;61452;40.054;4.110;2022-07-10T05:07:20;8.20;;;2.30;;
73239;SDS011;61452;40.054;4.110;2022-07-10T05:12:22;5.18;;;2.50;;
73239;SDS011;61452;40.054;4.110;2022-07-10T05:17:25;6.25;;;2.58;;
73239;SDS011;61452;40.054;4.110;2022-07-10T05:22:30;7.00;;;2.70;;
73239;SDS011;61452;40.054;4.110;2022-07-10T05:27:32;4.93;;;2.03;;
73239;SDS011;61452;40.054;4.110;2022-07-10T05:32:41;5.68;;;2.50;;
73239;SDS011;61452;40.054;4.110;2022-07-10T05:37:47;5.60;;;2.63;;
73239;SDS011;61452;40.054;4.110;2022-07-10T05:42:49;6.68;;;2.45;;
73239;SDS011;61452;40.054;4.110;2022-07-10T05:47:52;5.60;;;2.30;;
73239;SDS011;61452;40.054;4.110;2022-07-10T05:52:55;6.55;;;2.63;;
73239;SDS011;61452;40.054;4.110;2022-07-10T05:57:57;5.70;;;2.47;;
73239;SDS011;61452;40.054;4.110;2022-07-10T06:03:00;8.50;;;2.55;;
73239;SDS011;61452;40.054;4.110;2022-07-10T06:08:03;6.45;;;2.60;;
73239;SDS011;61452;40.054;4.110;2022-07-10T06:13:06;5.05;;;2.42;;
73239;SDS011;61452;40.054;4.110;2022-07-10T06:18:08;10.32;;;2.35;;
73239;SDS011;61452;40.054;4.110;2022-07-10T06:23:11;8.90;;;3.10;;
73239;SDS011;61452;40.054;4.110;2022-07-10T06:28:13;5.30;;;2.60;;
73239;SDS011;61452;40.054;4.110;2022-07-10T06:33:16;7.88;;;3.00;;
73239;SDS011;61452;40.054;4.110;2022-07-10T06:38:19;12.23;;;3.17;;
73239;SDS011;61452;40.054;4.110;2022-07-10T06:43:21;3.67;;;2.30;;
73239;SDS011;61452;40.054;4.110;2022-07-10T06:48:23;5.55;;;2.85;;
73239;SDS011;61452;40.054;4.110;2022-07-10T06:53:28;7.25;;;2.40;;
73239;SDS011;61452;40.054;4.110;2022-07-10T06:58:30;10.18;;;2.90;;
73239;SDS011;61452;40.054;4.110;2022-07-10T07:03:33;6.38;;;2.65;;
73239;SDS011;61452;40.054;4.110;2022-07-10T07:08:35;6.63;;;3.08;;
73239;SDS011;61452;40.054;4.110;2022-07-10T07:13:38;8.63;;;3.25;;
73239;SDS011;61452;40.054;4.110;2022-07-10T07:18:41;6.97;;;3.15;;
73239;SDS011;61452;40.054;4.110;2022-07-10T07:23:50;6.03;;;3.00;;
73239;SDS011;61452;40.054;4.110;2022-07-10T07:28:53;5.75;;;3.08;;
73239;SDS011;61452;40.054;4.110;2022-07-10T07:33:55;6.30;;;3.00;;
73239;SDS011;61452;40.054;4.110;2022-07-10T07:38:58;5.50;;;2.88;;
73239;SDS011;61452;40.054;4.110;2022-07-10T07:44:00;5.38;;;2.70;;
73239;SDS011;61452;40.054;4.110;2022-07-10T07:49:03;6.18;;;2.75;;
73239;SDS011;61452;40.054;4.110;2022-07-10T07:54:05;5.70;;;2.85;;
73239;SDS011;61452;40.054;4.110;2022-07-10T07:59:08;3.95;;;2.55;;
73239;SDS011;61452;40.054;4.110;2022-07-10T08:04:10;8.35;;;3.33;;
73239;SDS011;61452;40.054;4.110;2022-07-10T08:09:12;4.78;;;2.92;;
73239;SDS011;61452;40.054;4.110;2022-07-10T08:14:15;7.57;;;3.10;;
73239;SDS011;61452;40.054;4.110;2022-07-10T08:19:17;6.18;;;3.30;;
73239;SDS011;61452;40.054;4.110;2022-07-10T08:24:19;5.30;;;2.90;;
73239;SDS011;61452;40.054;4.110;2022-07-10T08:29:22;5.43;;;2.92;;
73239;SDS011;61452;40.054;4.110;2022-07-10T08:34:25;5.43;;;3.03;;
73239;SDS011;61452;40.054;4.110;2022-07-10T08:39:28;4.35;;;2.67;;
73239;SDS011;61452;40.054;4.110;2022-07-10T08:44:30;5.10;;;3.72;;
73239;SDS011;61452;40.054;4.110;2022-07-10T08:49:33;6.72;;;2.83;;
73239;SDS011;61452;40.054;4.110;2022-07-10T08:54:37;4.97;;;3.60;;
73239;SDS011;61452;40.054;4.110;2022-07-10T08:59:40;4.45;;;2.90;;
73239;SDS011;61452;40.054;4.110;2022-07-10T09:04:43;6.60;;;2.70;;
73239;SDS011;61452;40.054;4.110;2022-07-10T09:09:55;6.97;;;2.78;;
73239;SDS011;61452;40.054;4.110;2022-07-10T09:15:14;5.30;;;2.80;;
73239;SDS011;61452;40.054;4.110;2022-07-10T09:20:27;5.47;;;2.97;;
73239;SDS011;61452;40.054;4.110;2022-07-10T09:25:34;4.82;;;3.08;;
73239;SDS011;61452;40.054;4.110;2022-07-10T09:30:37;5.80;;;3.13;;
73239;SDS011;61452;40.054;4.110;2022-07-10T09:46:20;6.25;;;3.35;;
73239;SDS011;61452;40.054;4.110;2022-07-10T09:51:23;4.75;;;3.50;;
73239;SDS011;61452;40.054;4.110;2022-07-10T09:56:26;6.05;;;3.38;;
73239;SDS011;61452;40.054;4.110;2022-07-10T10:01:29;4.85;;;3.35;;
73239;SDS011;61452;40.054;4.110;2022-07-10T10:06:32;6.43;;;3.90;;
73239;SDS011;61452;40.054;4.110;2022-07-10T10:11:38;4.68;;;3.17;;
73239;SDS011;61452;40.054;4.110;2022-07-10T10:16:43;7.13;;;3.25;;
73239;SDS011;61452;40.054;4.110;2022-07-10T10:21:48;3.58;;;3.28;;
73239;SDS011;61452;40.054;4.110;2022-07-10T10:26:50;5.90;;;3.08;;
73239;SDS011;61452;40.054;4.110;2022-07-10T10:31:54;4.05;;;3.00;;
73239;SDS011;61452;40.054;4.110;2022-07-10T10:36:57;4.80;;;3.30;;
73239;SDS011;61452;40.054;4.110;2022-07-10T10:41:59;4.72;;;3.13;;
73239;SDS011;61452;40.054;4.110;2022-07-10T10:47:03;7.15;;;3.45;;
73239;SDS011;61452;40.054;4.110;2022-07-10T10:52:11;5.07;;;2.78;;
73239;SDS011;61452;40.054;4.110;2022-07-10T10:57:17;4.88;;;3.13;;
73239;SDS011;61452;40.054;4.110;2022-07-10T11:02:20;4.72;;;3.13;;
73239;SDS011;61452;40.054;4.110;2022-07-10T11:13:08;3.03;;;2.70;;
73239;SDS011;61452;40.054;4.110;2022-07-10T11:18:19;5.70;;;2.85;;
73239;SDS011;61452;40.054;4.110;2022-07-10T11:29:17;6.38;;;2.97;;
73239;SDS011;61452;40.054;4.110;2022-07-10T11:34:23;3.67;;;2.88;;
73239;SDS011;61452;40.054;4.110;2022-07-10T11:39:35;4.38;;;2.63;;
73239;SDS011;61452;40.054;4.110;2022-07-10T11:44:38;4.78;;;2.78;;
73239;SDS011;61452;40.054;4.110;2022-07-10T11:49:44;4.82;;;2.70;;
73239;SDS011;61452;40.054;4.110;2022-07-10T11:54:47;4.40;;;2.92;;
73239;SDS011;61452;40.054;4.110;2022-07-10T11:59:51;3.17;;;2.50;;
73239;SDS011;61452;40.054;4.110;2022-07-10T12:04:53;3.03;;;2.55;;
73239;SDS011;61452;40.054;4.110;2022-07-10T12:09:55;3.08;;;2.70;;
73239;SDS011;61452;40.054;4.110;2022-07-10T12:14:58;5.47;;;2.83;;
73239;SDS011;61452;40.054;4.110;2022-07-10T12:20:01;3.85;;;2.67;;
73239;SDS011;61452;40.054;4.110;2022-07-10T12:25:04;3.33;;;2.67;;
73239;SDS011;61452;40.054;4.110;2022-07-10T12:30:08;3.30;;;2.30;;
73239;SDS011;61452;40.054;4.110;2022-07-10T12:35:11;3.17;;;2.20;;
73239;SDS011;61452;40.054;4.110;2022-07-10T12:40:34;2.50;;;2.30;;
73239;SDS011;61452;40.054;4.110;2022-07-10T12:45:37;4.00;;;2.45;;
73239;SDS011;61452;40.054;4.110;2022-07-10T12:55:42;4.50;;;2.88;;
73239;SDS011;61452;40.054;4.110;2022-07-10T13:00:46;2.97;;;2.65;;
73239;SDS011;61452;40.054;4.110;2022-07-10T13:05:52;3.92;;;2.50;;
73239;SDS011;61452;40.054;4.110;2022-07-10T13:10:55;3.88;;;2.60;;
73239;SDS011;61452;40.054;4.110;2022-07-10T13:16:00;3.15;;;2.30;;
73239;SDS011;61452;40.054;4.110;2022-07-10T13:21:03;3.75;;;2.35;;
73239;SDS011;61452;40.054;4.110;2022-07-10T13:26:05;3.65;;;2.20;;
73239;SDS011;61452;40.054;4.110;2022-07-10T13:31:11;3.67;;;2.47;;
73239;SDS011;61452;40.054;4.110;2022-07-10T13:36:14;4.20;;;2.55;;
73239;SDS011;61452;40.054;4.110;2022-07-10T13:41:17;4.05;;;2.40;;
73239;SDS011;61452;40.054;4.110;2022-07-10T13:46:19;3.22;;;2.53;;
73239;SDS011;61452;40.054;4.110;2022-07-10T13:51:21;2.90;;;2.17;;
73239;SDS011;61452;40.054;4.110;2022-07-10T13:56:24;3.47;;;2.03;;
73239;SDS011;61452;40.054;4.110;2022-07-10T14:01:27;2.75;;;1.92;;
73239;SDS011;61452;40.054;4.110;2022-07-10T14:06:29;3.72;;;2.30;;
73239;SDS011;61452;40.054;4.110;2022-07-10T14:11:32;3.28;;;2.13;;
73239;SDS011;61452;40.054;4.110;2022-07-10T14:16:34;2.25;;;2.05;;
73239;SDS011;61452;40.054;4.110;2022-07-10T14:21:38;3.33;;;2.30;;
73239;SDS011;61452;40.054;4.110;2022-07-10T14:26:42;2.40;;;2.03;;
73239;SDS011;61452;40.054;4.110;2022-07-10T14:31:44;3.38;;;2.15;;
73239;SDS011;61452;40.054;4.110;2022-07-10T14:36:50;3.15;;;2.15;;
73239;SDS011;61452;40.054;4.110;2022-07-10T14:42:00;4.18;;;2.20;;
73239;SDS011;61452;40.054;4.110;2022-07-10T14:47:03;2.78;;;2.03;;
73239;SDS011;61452;40.054;4.110;2022-07-10T14:57:09;3.28;;;2.00;;
73239;SDS011;61452;40.054;4.110;2022-07-10T15:02:12;2.78;;;2.00;;
73239;SDS011;61452;40.054;4.110;2022-07-10T15:07:14;3.60;;;2.28;;
73239;SDS011;61452;40.054;4.110;2022-07-10T15:12:19;4.07;;;2.10;;
73239;SDS011;61452;40.054;4.110;2022-07-10T15:17:22;2.70;;;1.80;;
73239;SDS011;61452;40.054;4.110;2022-07-10T15:22:24;3.30;;;2.17;;
73239;SDS011;61452;40.054;4.110;2022-07-10T15:27:27;2.15;;;1.95;;
73239;SDS011;61452;40.054;4.110;2022-07-10T15:32:29;3.00;;;2.00;;
73239;SDS011;61452;40.054;4.110;2022-07-10T15:37:32;2.72;;;1.90;;
73239;SDS011;61452;40.054;4.110;2022-07-10T15:42:35;4.38;;;1.92;;
73239;SDS011;61452;40.054;4.110;2022-07-10T15:47:37;2.65;;;1.70;;
73239;SDS011;61452;40.054;4.110;2022-07-10T15:52:40;3.33;;;1.98;;
73239;SDS011;61452;40.054;4.110;2022-07-10T15:57:42;2.63;;;2.08;;
73239;SDS011;61452;40.054;4.110;2022-07-10T16:02:44;2.55;;;2.22;;
73239;SDS011;61452;40.054;4.110;2022-07-10T16:07:47;2.83;;;2.10;;
73239;SDS011;61452;40.054;4.110;2022-07-10T16:12:49;2.33;;;1.90;;
73239;SDS011;61452;40.054;4.110;2022-07-10T16:17:52;3.72;;;2.20;;
73239;SDS011;61452;40.054;4.110;2022-07-10T16:22:54;2.35;;;1.85;;
73239;SDS011;61452;40.054;4.110;2022-07-10T16:27:57;2.75;;;2.13;;
73239;SDS011;61452;40.054;4.110;2022-07-10T16:32:59;2.30;;;1.90;;
73239;SDS011;61452;40.054;4.110;2022-07-10T16:38:01;2.88;;;1.73;;
73239;SDS011;61452;40.054;4.110;2022-07-10T16:43:04;2.10;;;1.90;;
73239;SDS011;61452;40.054;4.110;2022-07-10T16:48:06;2.30;;;2.10;;
73239;SDS011;61452;40.054;4.110;2022-07-10T16:53:09;2.97;;;1.90;;
73239;SDS011;61452;40.054;4.110;2022-07-10T16:58:11;3.05;;;1.77;;
73239;SDS011;61452;40.054;4.110;2022-07-10T17:03:14;3.47;;;2.10;;
73239;SDS011;61452;40.054;4.110;2022-07-10T17:08:17;2.75;;;2.05;;
73239;SDS011;61452;40.054;4.110;2022-07-10T17:13:20;3.17;;;1.90;;
73239;SDS011;61452;40.054;4.110;2022-07-10T17:18:22;3.00;;;1.80;;
73239;SDS011;61452;40.054;4.110;2022-07-10T17:23:25;3.22;;;2.22;;
73239;SDS011;61452;40.054;4.110;2022-07-10T17:28:27;5.53;;;2.25;;
73239;SDS011;61452;40.054;4.110;2022-07-10T17:33:29;4.28;;;2.20;;
73239;SDS011;61452;40.054;4.110;2022-07-10T17:43:34;2.75;;;2.08;;
73239;SDS011;61452;40.054;4.110;2022-07-10T17:48:37;3.10;;;2.20;;
73239;SDS011;61452;40.054;4.110;2022-07-10T17:53:39;2.50;;;1.95;;
73239;SDS011;61452;40.054;4.110;2022-07-10T17:58:42;2.88;;;2.20;;
73239;SDS011;61452;40.054;4.110;2022-07-10T18:03:45;3.17;;;1.85;;
73239;SDS011;61452;40.054;4.110;2022-07-10T18:08:47;2.75;;;2.20;;
73239;SDS011;61452;40.054;4.110;2022-07-10T18:13:50;2.20;;;2.00;;
73239;SDS011;61452;40.054;4.110;2022-07-10T18:18:54;2.40;;;2.00;;
73239;SDS011;61452;40.054;4.110;2022-07-10T18:23:57;4.60;;;2.55;;
73239;SDS011;61452;40.054;4.110;2022-07-10T18:29:02;2.33;;;2.00;;
73239;SDS011;61452;40.054;4.110;2022-07-10T18:34:05;5.20;;;2.53;;
73239;SDS011;61452;40.054;4.110;2022-07-10T18:39:26;3.40;;;2.25;;
73239;SDS011;61452;40.054;4.110;2022-07-10T18:44:28;3.05;;;2.08;;
73239;SDS011;61452;40.054;4.110;2022-07-10T18:49:31;2.88;;;2.10;;
73239;SDS011;61452;40.054;4.110;2022-07-10T18:54:33;2.63;;;2.42;;
73239;SDS011;61452;40.054;4.110;2022-07-10T18:59:35;2.67;;;2.38;;
73239;SDS011;61452;40.054;4.110;2022-07-10T19:04:38;4.45;;;1.98;;
73239;SDS011;61452;40.054;4.110;2022-07-10T19:09:41;2.35;;;2.00;;
73239;SDS011;61452;40.054;4.110;2022-07-10T19:14:43;4.55;;;2.72;;
73239;SDS011;61452;40.054;4.110;2022-07-10T19:19:45;3.47;;;2.13;;
73239;SDS011;61452;40.054;4.110;2022-07-10T19:24:48;3.72;;;2.10;;
73239;SDS011;61452;40.054;4.110;2022-07-10T19:29:50;2.50;;;2.00;;
73239;SDS011;61452;40.054;4.110;2022-07-10T19:34:54;2.50;;;2.22;;
73239;SDS011;61452;40.054;4.110;2022-07-10T19:39:57;2.50;;;2.13;;
73239;SDS011;61452;40.054;4.110;2022-07-10T19:44:59;3.08;;;2.20;;
73239;SDS011;61452;40.054;4.110;2022-07-10T19:50:02;3.22;;;2.40;;
73239;SDS011;61452;40.054;4.110;2022-07-10T19:55:05;2.30;;;2.10;;
73239;SDS011;61452;40.054;4.110;2022-07-10T20:00:10;2.40;;;2.00;;
73239;SDS011;61452;40.054;4.110;2022-07-10T20:05:13;2.55;;;2.28;;
73239;SDS011;61452;40.054;4.110;2022-07-10T20:10:15;2.80;;;1.80;;
73239;SDS011;61452;40.054;4.110;2022-07-10T20:15:17;2.40;;;2.13;;
73239;SDS011;61452;40.054;4.110;2022-07-10T20:20:20;4.43;;;2.00;;
73239;SDS011;61452;40.054;4.110;2022-07-10T20:25:22;2.45;;;1.83;;
73239;SDS011;61452;40.054;4.110;2022-07-10T20:30:25;3.05;;;2.00;;
73239;SDS011;61452;40.054;4.110;2022-07-10T20:35:27;3.47;;;2.13;;
73239;SDS011;61452;40.054;4.110;2022-07-10T20:40:33;4.03;;;2.30;;
73239;SDS011;61452;40.054;4.110;2022-07-10T20:45:35;3.22;;;2.40;;
73239;SDS011;61452;40.054;4.110;2022-07-10T20:50:37;4.05;;;2.35;;
73239;SDS011;61452;40.054;4.110;2022-07-10T20:55:40;2.70;;;1.95;;
73239;SDS011;61452;40.054;4.110;2022-07-10T21:00:43;4.00;;;2.50;;
73239;SDS011;61452;40.054;4.110;2022-07-10T21:05:45;3.20;;;2.60;;
73239;SDS011;61452;40.054;4.110;2022-07-10T21:10:47;4.13;;;2.55;;
73239;SDS011;61452;40.054;4.110;2022-07-10T21:15:57;4.90;;;2.72;;
73239;SDS011;61452;40.054;4.110;2022-07-10T21:21:12;3.08;;;2.28;;
73239;SDS011;61452;40.054;4.110;2022-07-10T21:26:34;2.70;;;2.50;;
73239;SDS011;61452;40.054;4.110;2022-07-10T21:31:37;4.60;;;2.03;;
73239;SDS011;61452;40.054;4.110;2022-07-10T21:36:40;4.50;;;2.40;;
73239;SDS011;61452;40.054;4.110;2022-07-10T21:41:43;4.10;;;2.35;;
73239;SDS011;61452;40.054;4.110;2022-07-10T21:46:52;4.43;;;2.25;;
73239;SDS011;61452;40.054;4.110;2022-07-10T21:52:07;2.85;;;2.30;;
73239;SDS011;61452;40.054;4.110;2022-07-10T21:57:10;4.20;;;2.47;;
73239;SDS011;61452;40.054;4.110;2022-07-10T22:02:12;2.88;;;2.15;;
73239;SDS011;61452;40.054;4.110;2022-07-10T22:07:15;4.82;;;2.60;;
73239;SDS011;61452;40.054;4.110;2022-07-10T22:12:17;3.30;;;2.17;;
73239;SDS011;61452;40.054;4.110;2022-07-10T22:17:20;2.40;;;2.00;;
73239;SDS011;61452;40.054;4.110;2022-07-10T22:22:22;2.78;;;2.20;;
73239;SDS011;61452;40.054;4.110;2022-07-10T22:27:24;2.65;;;2.20;;
73239;SDS011;61452;40.054;4.110;2022-07-10T22:32:27;2.80;;;2.00;;
73239;SDS011;61452;40.054;4.110;2022-07-10T22:37:29;2.88;;;2.20;;
73239;SDS011;61452;40.054;4.110;2022-07-10T22:42:32;3.20;;;2.17;;
73239;SDS011;61452;40.054;4.110;2022-07-10T22:47:34;3.00;;;2.25;;
73239;SDS011;61452;40.054;4.110;2022-07-10T22:52:37;4.32;;;2.40;;
73239;SDS011;61452;40.054;4.110;2022-07-10T22:57:39;2.50;;;2.30;;
73239;SDS011;61452;40.054;4.110;2022-07-10T23:02:41;2.85;;;2.30;;
73239;SDS011;61452;40.054;4.110;2022-07-10T23:07:44;3.38;;;2.15;;
73239;SDS011;61452;40.054;4.110;2022-07-10T23:12:47;3.13;;;2.42;;
73239;SDS011;61452;40.054;4.110;2022-07-10T23:17:49;3.78;;;2.42;;
73239;SDS011;61452;40.054;4.110;2022-07-10T23:22:52;2.70;;;2.50;;
73239;SDS011;61452;40.054;4.110;2022-07-10T23:27:54;2.88;;;2.22;;
73239;SDS011;61452;40.054;4.110;2022-07-10T23:32:57;2.90;;;2.30;;
73239;SDS011;61452;40.054;4.110;2022-07-10T23:37:59;3.13;;;2.40;;
73239;SDS011;61452;40.054;4.110;2022-07-10T23:43:02;3.33;;;2.50;;
73239;SDS011;61452;40.054;4.110;2022-07-10T23:48:05;4.47;;;2.55;;
73239;SDS011;61452;40.054;4.110;2022-07-10T23:53:08;3.10;;;2.42;;
73239;SDS011;61452;40.054;4.110;2022-07-10T23:58:10;2.80;;;2.30;;
